createdAt,value
2022-08-25T00:00:44.571Z,101389.28
2022-08-25T00:06:32.134Z,101383.88
2022-08-25T00:12:20.357Z,101373.34
2022-08-25T00:18:19.531Z,101364.16
2022-08-25T00:24:09.054Z,101366.00
2022-08-25T00:29:56.108Z,101356.09
2022-08-25T00:35:44.673Z,101349.94
2022-08-25T00:41:35.602Z,101361.31
2022-08-25T00:47:22.574Z,101360.31
2022-08-25T00:53:09.912Z,101343.00
2022-08-25T00:58:57.793Z,101351.19
2022-08-25T01:04:48.745Z,101354.63
2022-08-25T01:10:41.261Z,101367.81
2022-08-25T01:16:28.577Z,101369.72
2022-08-25T01:22:17.374Z,101345.44
2022-08-25T01:28:05.147Z,101334.34
2022-08-25T01:33:52.589Z,101319.31
2022-08-25T01:39:39.793Z,101308.25
2022-08-25T01:45:27.360Z,101319.25
2022-08-25T01:51:19.207Z,101319.00
2022-08-25T01:57:09.384Z,101311.81
2022-08-25T02:02:57.774Z,101311.59
2022-08-25T02:08:45.280Z,101333.94
2022-08-25T02:14:36.670Z,101308.28
2022-08-25T02:20:24.539Z,101312.00
2022-08-25T02:26:16.630Z,101319.06
2022-08-25T02:32:05.078Z,101338.41
2022-08-25T02:37:52.501Z,101335.72
2022-08-25T02:43:43.160Z,101329.44
2022-08-25T02:49:37.273Z,101335.38
2022-08-25T02:55:24.259Z,101324.25
2022-08-25T03:01:14.089Z,101323.38
2022-08-25T03:07:01.144Z,101314.72
2022-08-25T03:12:48.059Z,101313.47
2022-08-25T03:18:35.761Z,101304.63
2022-08-25T03:24:23.614Z,101304.28
2022-08-25T03:30:11.717Z,101282.03
2022-08-25T03:35:59.455Z,101274.44
2022-08-25T03:41:49.956Z,101307.66
2022-08-25T03:47:52.689Z,101317.97
2022-08-25T03:53:42.080Z,101306.97
2022-08-25T03:59:29.494Z,101315.84
2022-08-25T04:05:16.516Z,101327.19
2022-08-25T04:11:24.448Z,101304.72
2022-08-25T04:17:14.256Z,101302.69
2022-08-25T04:23:01.573Z,101301.50
2022-08-25T04:28:49.624Z,101295.88
2022-08-25T04:34:39.104Z,101302.06
2022-08-25T04:40:29.146Z,101314.25
2022-08-25T04:46:22.295Z,101305.38
2022-08-25T04:52:14.311Z,101369.41
2022-08-25T04:58:01.513Z,101405.66
2022-08-25T05:03:57.684Z,101410.09
2022-08-25T05:09:45.621Z,101425.41
2022-08-25T05:15:50.988Z,101421.09
2022-08-25T05:21:38.583Z,101397.06
2022-08-25T05:27:25.755Z,101406.81
2022-08-25T05:33:13.530Z,101401.94
2022-08-25T05:39:01.046Z,101382.56
2022-08-25T05:44:48.213Z,101390.78
2022-08-25T05:50:35.186Z,101382.41
2022-08-25T05:56:22.154Z,101369.88
2022-08-25T06:02:29.790Z,101366.22
2022-08-25T06:08:16.732Z,101354.53
2022-08-25T06:14:04.732Z,101346.72
2022-08-25T06:19:56.528Z,101346.03
2022-08-25T06:25:49.910Z,101363.66
2022-08-25T06:31:38.300Z,101386.13
2022-08-25T06:37:26.291Z,101418.41
2022-08-25T06:43:13.030Z,101400.22
2022-08-25T06:49:00.889Z,101395.88
2022-08-25T06:54:49.095Z,101419.50
2022-08-25T07:00:41.407Z,101425.81
2022-08-25T07:06:32.305Z,101435.88
2022-08-25T07:12:19.592Z,101398.75
2022-08-25T07:18:08.933Z,101388.31
2022-08-25T07:23:58.887Z,101393.13
2022-08-25T07:29:46.509Z,101382.09
2022-08-25T07:35:37.483Z,101389.56
2022-08-25T07:41:26.309Z,101394.16
2022-08-25T07:47:15.764Z,101390.75
2022-08-25T07:53:03.084Z,101379.72
2022-08-25T07:58:49.904Z,101416.94
2022-08-25T08:04:37.760Z,101424.59
2022-08-25T08:10:47.834Z,101431.63
2022-08-25T08:16:36.027Z,101414.34
2022-08-25T08:22:24.297Z,101405.66
2022-08-25T08:28:18.868Z,101405.66
2022-08-25T08:34:06.385Z,101418.38
2022-08-25T08:39:58.418Z,101429.00
2022-08-25T08:45:59.581Z,101427.75
2022-08-25T08:51:58.061Z,101422.97
2022-08-25T09:03:44.812Z,101456.72
2022-08-25T09:09:41.884Z,101472.66
2022-08-25T09:16:00.280Z,101465.31
2022-08-25T09:22:33.293Z,101469.44
2022-08-25T09:28:28.598Z,101460.34
2022-08-25T09:34:39.309Z,101452.19
2022-08-25T09:41:03.276Z,101430.38
2022-08-25T09:47:20.937Z,101435.78
2022-08-25T09:59:35.659Z,101421.91
2022-08-25T10:05:26.316Z,101420.03
2022-08-25T10:11:30.226Z,101423.97
2022-08-25T10:17:27.451Z,101430.88
2022-08-25T10:23:15.156Z,101437.75
2022-08-25T10:29:13.245Z,101443.03
2022-08-25T10:35:27.340Z,101432.69
2022-08-25T10:41:36.990Z,101405.66
2022-08-25T10:47:31.064Z,101389.09
2022-08-25T10:53:56.314Z,101384.47
2022-08-25T11:00:01.907Z,101368.75
2022-08-25T11:05:59.275Z,101345.75
2022-08-25T11:12:15.634Z,101337.50
2022-08-25T11:18:14.842Z,101320.63
2022-08-25T11:24:14.403Z,101301.25
2022-08-25T11:30:10.115Z,101322.28
2022-08-25T11:36:36.942Z,101378.13
2022-08-25T11:42:44.773Z,101421.47
2022-08-25T11:49:00.984Z,101425.19
2022-08-25T11:54:51.940Z,101426.34
2022-08-25T12:00:54.578Z,101417.22
2022-08-25T12:07:07.455Z,101410.91
2022-08-25T12:13:27.223Z,101435.41
2022-08-25T12:19:46.156Z,101425.03
2022-08-25T12:25:45.928Z,101423.44
2022-08-25T12:32:04.666Z,101422.16
2022-08-25T12:38:44.747Z,101425.75
2022-08-25T12:45:18.002Z,101426.16
2022-08-25T12:51:18.105Z,101430.50
2022-08-25T12:57:32.062Z,101440.22
2022-08-25T13:03:49.766Z,101430.66
2022-08-25T13:10:05.741Z,101418.06
2022-08-25T13:16:25.585Z,101419.44
2022-08-25T13:22:18.381Z,101402.09
2022-08-25T13:28:11.088Z,101420.81
2022-08-25T13:34:09.165Z,101426.97
2022-08-25T13:40:19.538Z,101416.72
2022-08-25T13:47:06.392Z,101408.59
2022-08-25T13:53:12.974Z,101419.25
2022-08-25T13:59:40.218Z,101414.03
2022-08-25T14:05:45.575Z,101434.44
2022-08-25T14:11:57.045Z,101422.03
2022-08-25T14:18:26.959Z,101432.97
2022-08-25T14:24:22.622Z,101421.00
2022-08-25T14:30:29.126Z,101424.59
2022-08-25T14:36:20.689Z,101431.31
2022-08-25T14:42:13.667Z,101431.75
2022-08-25T14:49:09.414Z,101430.84
2022-08-25T14:55:01.293Z,101425.38
2022-08-25T15:00:54.415Z,101425.78
2022-08-25T15:06:56.223Z,101432.25
2022-08-25T15:20:13.448Z,101447.00
2022-08-25T15:26:14.205Z,101439.72
2022-08-25T15:32:10.642Z,101444.97
2022-08-25T15:38:21.306Z,101443.00
2022-08-25T15:44:29.667Z,101446.63
2022-08-25T15:50:25.437Z,101444.97
2022-08-25T15:56:26.969Z,101449.25
2022-08-25T16:02:23.164Z,101469.69
2022-08-25T16:08:43.705Z,101481.03
2022-08-25T16:14:35.893Z,101495.31
2022-08-25T16:20:23.701Z,101494.50
2022-08-25T16:26:15.827Z,101507.44
2022-08-25T16:32:07.622Z,101495.91
2022-08-25T16:37:55.125Z,101508.91
2022-08-25T16:43:48.323Z,101515.50
2022-08-25T16:49:44.002Z,101516.22
2022-08-25T16:55:39.159Z,101531.09
2022-08-25T17:01:38.550Z,101512.25
2022-08-25T17:07:29.605Z,101515.59
2022-08-25T17:13:23.017Z,101510.56
2022-08-25T17:19:17.864Z,101514.31
2022-08-25T17:25:06.996Z,101516.22
2022-08-25T17:31:12.781Z,101518.81
2022-08-25T17:37:04.472Z,101524.31
2022-08-25T17:43:14.356Z,101525.00
2022-08-25T17:49:37.541Z,101535.91
2022-08-25T17:55:38.196Z,101539.59
2022-08-25T18:01:45.911Z,101543.00
2022-08-25T18:07:50.410Z,101537.00
2022-08-25T18:13:53.715Z,101537.97
2022-08-25T18:21:22.467Z,101541.63
2022-08-25T18:28:09.177Z,101543.94
2022-08-25T18:33:00.994Z,101545.34
2022-08-25T18:39:10.462Z,101544.69
2022-08-25T18:45:05.503Z,101563.69
2022-08-25T18:51:01.087Z,101566.38
2022-08-25T19:03:01.569Z,101578.25
2022-08-25T19:09:23.075Z,101592.75
2022-08-25T19:15:17.388Z,101583.63
2022-08-25T19:21:07.381Z,101602.19
2022-08-25T19:26:56.696Z,101604.47
2022-08-25T19:32:45.983Z,101601.94
2022-08-25T19:38:35.557Z,101609.97
2022-08-25T19:44:23.617Z,101606.44
2022-08-25T19:50:16.806Z,101613.44
2022-08-25T19:56:15.336Z,101609.44
2022-08-25T20:02:03.870Z,101615.97
2022-08-25T20:07:54.784Z,101624.63
2022-08-25T20:14:39.007Z,101618.03
2022-08-25T20:20:32.495Z,101620.72
2022-08-25T20:26:27.038Z,101615.41
2022-08-25T20:32:23.554Z,101622.28
2022-08-25T20:38:11.885Z,101624.13
2022-08-25T20:44:11.666Z,101620.34
2022-08-25T20:56:26.272Z,101617.00
2022-08-25T21:02:53.924Z,101620.19
2022-08-25T21:08:51.306Z,101613.53
2022-08-25T21:14:41.834Z,101615.69
2022-08-25T21:20:29.089Z,101605.94
2022-08-25T21:26:20.131Z,101614.66
2022-08-25T21:32:07.894Z,101619.75
2022-08-25T21:37:56.704Z,101627.91
2022-08-25T21:43:58.897Z,101628.28
2022-08-25T21:49:52.596Z,101643.22
2022-08-25T21:55:59.248Z,101651.22
2022-08-25T22:02:04.426Z,101654.09
2022-08-25T22:07:51.229Z,101659.13
2022-08-25T22:13:41.239Z,101664.78
2022-08-25T22:19:30.180Z,101658.09
2022-08-25T22:25:20.439Z,101669.66
2022-08-25T22:31:12.741Z,101664.34
2022-08-25T22:37:03.637Z,101672.06
2022-08-25T22:42:53.562Z,101675.25
2022-08-25T22:48:42.934Z,101669.09
2022-08-25T22:54:32.455Z,101677.06
2022-08-25T23:00:20.357Z,101675.13
2022-08-25T23:06:24.641Z,101686.47
2022-08-25T23:12:12.488Z,101679.53
2022-08-25T23:17:59.450Z,101667.19
2022-08-25T23:23:47.978Z,101670.50
2022-08-25T23:29:39.001Z,101672.09
2022-08-25T23:35:26.733Z,101670.13
2022-08-25T23:41:19.329Z,101666.00
2022-08-25T23:47:07.171Z,101661.84
2022-08-25T23:52:53.999Z,101662.97
2022-08-25T23:58:40.809Z,101669.38
